sensor_id;sensor_type;location;lat;lon;timestamp;temperature;humidity
25342;DHT22;13298;48.792;9.154;2022-09-01T00:00:09;14.20;99.90
25342;DHT22;13298;48.792;9.154;2022-09-01T00:02:37;14.10;99.90
25342;DHT22;13298;48.792;9.154;2022-09-01T00:05:04;14.00;99.90
25342;DHT22;13298;48.792;9.154;2022-09-01T00:07:31;14.00;99.90
25342;DHT22;13298;48.792;9.154;2022-09-01T00:10:00;14.00;99.90
25342;DHT22;13298;48.792;9.154;2022-09-01T00:12:27;14.00;99.90
25342;DHT22;13298;48.792;9.154;2022-09-01T00:14:53;14.00;99.90
25342;DHT22;13298;48.792;9.154;2022-09-01T00:17:19;14.00;99.90
25342;DHT22;13298;48.792;9.154;2022-09-01T00:19:45;13.90;99.90
25342;DHT22;13298;48.792;9.154;2022-09-01T00:22:11;13.90;99.90
25342;DHT22;13298;48.792;9.154;2022-09-01T00:24:37;13.90;99.90
25342;DHT22;13298;48.792;9.154;2022-09-01T00:27:02;13.90;99.90
25342;DHT22;13298;48.792;9.154;2022-09-01T00:29:28;13.90;99.90
25342;DHT22;13298;48.792;9.154;2022-09-01T00:31:54;13.90;99.90
25342;DHT22;13298;48.792;9.154;2022-09-01T00:34:21;13.90;99.90
25342;DHT22;13298;48.792;9.154;2022-09-01T00:36:47;13.90;99.90
25342;DHT22;13298;48.792;9.154;2022-09-01T00:39:13;13.90;99.90
25342;DHT22;13298;48.792;9.154;2022-09-01T00:41:41;13.90;99.90
25342;DHT22;13298;48.792;9.154;2022-09-01T00:44:12;13.80;99.90
25342;DHT22;13298;48.792;9.154;2022-09-01T00:46:46;13.80;99.90
25342;DHT22;13298;48.792;9.154;2022-09-01T00:52:00;13.70;99.90
25342;DHT22;13298;48.792;9.154;2022-09-01T00:54:35;13.70;99.90
25342;DHT22;13298;48.792;9.154;2022-09-01T00:57:06;13.70;99.90
25342;DHT22;13298;48.792;9.154;2022-09-01T00:59:35;13.70;99.90
25342;DHT22;13298;48.792;9.154;2022-09-01T01:02:08;13.70;99.90
25342;DHT22;13298;48.792;9.154;2022-09-01T01:04:35;13.70;99.90
25342;DHT22;13298;48.792;9.154;2022-09-01T01:07:01;13.60;99.90
25342;DHT22;13298;48.792;9.154;2022-09-01T01:09:29;13.60;99.90
25342;DHT22;13298;48.792;9.154;2022-09-01T01:11:59;13.60;99.90
25342;DHT22;13298;48.792;9.154;2022-09-01T01:14:26;13.60;99.90
25342;DHT22;13298;48.792;9.154;2022-09-01T01:16:53;13.60;99.90
25342;DHT22;13298;48.792;9.154;2022-09-01T01:22:54;13.50;99.90
25342;DHT22;13298;48.792;9.154;2022-09-01T01:28:16;13.50;99.90
25342;DHT22;13298;48.792;9.154;2022-09-01T01:30:48;13.50;99.90
25342;DHT22;13298;48.792;9.154;2022-09-01T01:33:21;13.40;99.90
25342;DHT22;13298;48.792;9.154;2022-09-01T01:35:51;13.40;99.90
25342;DHT22;13298;48.792;9.154;2022-09-01T01:38:19;13.40;99.90
25342;DHT22;13298;48.792;9.154;2022-09-01T01:40:47;13.40;99.90
25342;DHT22;13298;48.792;9.154;2022-09-01T01:43:14;13.40;99.90
25342;DHT22;13298;48.792;9.154;2022-09-01T01:45:46;13.50;99.90
25342;DHT22;13298;48.792;9.154;2022-09-01T01:48:14;13.50;99.90
25342;DHT22;13298;48.792;9.154;2022-09-01T01:50:43;13.50;99.90
25342;DHT22;13298;48.792;9.154;2022-09-01T01:53:14;13.50;99.90
25342;DHT22;13298;48.792;9.154;2022-09-01T01:55:43;13.50;99.90
25342;DHT22;13298;48.792;9.154;2022-09-01T01:58:08;13.40;99.90
25342;DHT22;13298;48.792;9.154;2022-09-01T02:00:37;13.40;99.90
25342;DHT22;13298;48.792;9.154;2022-09-01T02:03:03;13.40;99.90
25342;DHT22;13298;48.792;9.154;2022-09-01T02:05:34;13.30;99.90
25342;DHT22;13298;48.792;9.154;2022-09-01T02:08:06;13.30;99.90
25342;DHT22;13298;48.792;9.154;2022-09-01T02:10:39;13.30;99.90
25342;DHT22;13298;48.792;9.154;2022-09-01T02:13:11;13.30;99.90
25342;DHT22;13298;48.792;9.154;2022-09-01T02:15:47;13.30;99.90
25342;DHT22;13298;48.792;9.154;2022-09-01T02:18:20;13.30;99.90
25342;DHT22;13298;48.792;9.154;2022-09-01T02:20:55;13.30;99.90
25342;DHT22;13298;48.792;9.154;2022-09-01T02:23:23;13.30;99.90
25342;DHT22;13298;48.792;9.154;2022-09-01T02:25:54;13.30;99.90
25342;DHT22;13298;48.792;9.154;2022-09-01T02:28:25;13.30;99.90
25342;DHT22;13298;48.792;9.154;2022-09-01T02:30:52;13.20;99.90
25342;DHT22;13298;48.792;9.154;2022-09-01T02:33:22;13.20;99.90
25342;DHT22;13298;48.792;9.154;2022-09-01T02:35:52;13.20;99.90
25342;DHT22;13298;48.792;9.154;2022-09-01T02:38:20;13.20;99.90
25342;DHT22;13298;48.792;9.154;2022-09-01T02:40:50;13.20;99.90
25342;DHT22;13298;48.792;9.154;2022-09-01T02:43:19;13.20;99.90
25342;DHT22;13298;48.792;9.154;2022-09-01T02:45:47;13.20;99.90
25342;DHT22;13298;48.792;9.154;2022-09-01T02:48:21;13.20;99.90
25342;DHT22;13298;48.792;9.154;2022-09-01T02:50:51;13.20;99.90
25342;DHT22;13298;48.792;9.154;2022-09-01T02:53:18;13.20;99.90
25342;DHT22;13298;48.792;9.154;2022-09-01T02:55:44;13.20;99.90
25342;DHT22;13298;48.792;9.154;2022-09-01T02:58:10;13.20;99.90
25342;DHT22;13298;48.792;9.154;2022-09-01T03:00:41;13.20;99.90
25342;DHT22;13298;48.792;9.154;2022-09-01T03:03:08;13.20;99.90
25342;DHT22;13298;48.792;9.154;2022-09-01T03:05:37;13.20;99.90
25342;DHT22;13298;48.792;9.154;2022-09-01T03:08:08;13.10;99.90
25342;DHT22;13298;48.792;9.154;2022-09-01T03:10:38;13.10;99.90
25342;DHT22;13298;48.792;9.154;2022-09-01T03:13:14;13.10;99.90
25342;DHT22;13298;48.792;9.154;2022-09-01T03:15:45;13.00;99.90
25342;DHT22;13298;48.792;9.154;2022-09-01T03:18:12;13.00;99.90
25342;DHT22;13298;48.792;9.154;2022-09-01T03:20:41;13.00;99.90
25342;DHT22;13298;48.792;9.154;2022-09-01T03:23:10;13.00;99.90
25342;DHT22;13298;48.792;9.154;2022-09-01T03:25:41;13.00;99.90
25342;DHT22;13298;48.792;9.154;2022-09-01T03:28:07;13.00;99.90
25342;DHT22;13298;48.792;9.154;2022-09-01T03:30:35;13.00;99.90
25342;DHT22;13298;48.792;9.154;2022-09-01T03:33:05;12.90;99.90
25342;DHT22;13298;48.792;9.154;2022-09-01T03:35:31;12.90;99.90
25342;DHT22;13298;48.792;9.154;2022-09-01T03:37:58;12.90;99.90
25342;DHT22;13298;48.792;9.154;2022-09-01T03:40:28;12.90;99.90
25342;DHT22;13298;48.792;9.154;2022-09-01T03:42:57;12.90;99.90
25342;DHT22;13298;48.792;9.154;2022-09-01T03:45:24;12.90;99.90
25342;DHT22;13298;48.792;9.154;2022-09-01T03:47:51;12.90;99.90
25342;DHT22;13298;48.792;9.154;2022-09-01T03:50:21;12.80;99.90
25342;DHT22;13298;48.792;9.154;2022-09-01T03:52:51;12.90;99.90
25342;DHT22;13298;48.792;9.154;2022-09-01T03:55:26;12.80;99.90
25342;DHT22;13298;48.792;9.154;2022-09-01T03:57:56;12.90;99.90
25342;DHT22;13298;48.792;9.154;2022-09-01T04:00:26;12.90;99.90
25342;DHT22;13298;48.792;9.154;2022-09-01T04:02:56;12.90;99.90
25342;DHT22;13298;48.792;9.154;2022-09-01T04:05:25;12.90;99.90
25342;DHT22;13298;48.792;9.154;2022-09-01T04:07:57;12.90;99.90
25342;DHT22;13298;48.792;9.154;2022-09-01T04:10:34;12.90;99.90
25342;DHT22;13298;48.792;9.154;2022-09-01T04:13:02;12.90;99.90
25342;DHT22;13298;48.792;9.154;2022-09-01T04:15:29;12.90;99.90
25342;DHT22;13298;48.792;9.154;2022-09-01T04:17:56;12.90;99.90
25342;DHT22;13298;48.792;9.154;2022-09-01T04:20:41;12.90;99.90
25342;DHT22;13298;48.792;9.154;2022-09-01T04:25:59;12.80;99.90
25342;DHT22;13298;48.792;9.154;2022-09-01T04:28:53;12.80;99.90
25342;DHT22;13298;48.792;9.154;2022-09-01T04:31:20;12.80;99.90
25342;DHT22;13298;48.792;9.154;2022-09-01T04:33:48;12.70;99.90
25342;DHT22;13298;48.792;9.154;2022-09-01T04:36:22;12.70;99.90
25342;DHT22;13298;48.792;9.154;2022-09-01T04:38:52;12.70;99.90
25342;DHT22;13298;48.792;9.154;2022-09-01T04:41:24;12.70;99.90
25342;DHT22;13298;48.792;9.154;2022-09-01T04:43:57;12.70;99.90
25342;DHT22;13298;48.792;9.154;2022-09-01T04:46:25;12.70;99.90
25342;DHT22;13298;48.792;9.154;2022-09-01T04:48:54;12.70;99.90
25342;DHT22;13298;48.792;9.154;2022-09-01T04:51:22;12.70;99.90
25342;DHT22;13298;48.792;9.154;2022-09-01T04:53:55;12.70;99.90
25342;DHT22;13298;48.792;9.154;2022-09-01T04:56:24;12.70;99.90
25342;DHT22;13298;48.792;9.154;2022-09-01T04:58:51;12.80;99.90
25342;DHT22;13298;48.792;9.154;2022-09-01T05:01:25;12.80;99.90
25342;DHT22;13298;48.792;9.154;2022-09-01T05:03:52;12.80;99.90
25342;DHT22;13298;48.792;9.154;2022-09-01T05:06:27;12.70;99.90
25342;DHT22;13298;48.792;9.154;2022-09-01T05:08:57;12.70;99.90
25342;DHT22;13298;48.792;9.154;2022-09-01T05:11:24;12.80;99.90
25342;DHT22;13298;48.792;9.154;2022-09-01T05:13:50;12.80;99.90
25342;DHT22;13298;48.792;9.154;2022-09-01T05:16:22;12.90;99.90
25342;DHT22;13298;48.792;9.154;2022-09-01T05:18:50;12.90;99.90
25342;DHT22;13298;48.792;9.154;2022-09-01T05:21:19;12.90;99.90
25342;DHT22;13298;48.792;9.154;2022-09-01T05:23:49;13.00;99.90
25342;DHT22;13298;48.792;9.154;2022-09-01T05:26:36;13.10;99.90
25342;DHT22;13298;48.792;9.154;2022-09-01T05:29:05;13.00;99.90
25342;DHT22;13298;48.792;9.154;2022-09-01T05:31:39;13.00;99.90
25342;DHT22;13298;48.792;9.154;2022-09-01T05:34:06;13.10;99.90
25342;DHT22;13298;48.792;9.154;2022-09-01T05:36:35;13.10;99.90
25342;DHT22;13298;48.792;9.154;2022-09-01T05:39:03;13.20;99.90
25342;DHT22;13298;48.792;9.154;2022-09-01T05:41:30;13.20;99.90
25342;DHT22;13298;48.792;9.154;2022-09-01T05:43:57;13.30;99.90
25342;DHT22;13298;48.792;9.154;2022-09-01T05:46:24;13.30;99.90
25342;DHT22;13298;48.792;9.154;2022-09-01T05:48:52;13.20;99.90
25342;DHT22;13298;48.792;9.154;2022-09-01T05:51:21;13.20;99.90
25342;DHT22;13298;48.792;9.154;2022-09-01T05:53:51;13.20;99.90
25342;DHT22;13298;48.792;9.154;2022-09-01T05:56:21;13.20;99.90
25342;DHT22;13298;48.792;9.154;2022-09-01T05:58:48;13.30;99.90
25342;DHT22;13298;48.792;9.154;2022-09-01T06:01:19;13.30;99.90
25342;DHT22;13298;48.792;9.154;2022-09-01T06:03:51;13.30;99.90
25342;DHT22;13298;48.792;9.154;2022-09-01T06:06:29;13.20;99.90
25342;DHT22;13298;48.792;9.154;2022-09-01T06:09:03;13.20;99.90
25342;DHT22;13298;48.792;9.154;2022-09-01T06:11:31;13.30;99.90
25342;DHT22;13298;48.792;9.154;2022-09-01T06:14:01;13.40;99.90
25342;DHT22;13298;48.792;9.154;2022-09-01T06:16:28;13.60;99.90
25342;DHT22;13298;48.792;9.154;2022-09-01T06:18:55;13.70;99.90
25342;DHT22;13298;48.792;9.154;2022-09-01T06:21:24;13.80;99.90
25342;DHT22;13298;48.792;9.154;2022-09-01T06:23:53;14.00;99.90
25342;DHT22;13298;48.792;9.154;2022-09-01T06:26:23;14.10;99.90
25342;DHT22;13298;48.792;9.154;2022-09-01T06:29:02;14.30;99.90
25342;DHT22;13298;48.792;9.154;2022-09-01T06:31:32;14.50;99.90
25342;DHT22;13298;48.792;9.154;2022-09-01T06:34:03;14.60;99.90
25342;DHT22;13298;48.792;9.154;2022-09-01T06:36:30;14.70;99.90
25342;DHT22;13298;48.792;9.154;2022-09-01T06:38:57;14.70;99.90
25342;DHT22;13298;48.792;9.154;2022-09-01T06:41:26;14.90;99.90
25342;DHT22;13298;48.792;9.154;2022-09-01T06:43:52;15.00;99.90
25342;DHT22;13298;48.792;9.154;2022-09-01T06:46:20;15.10;99.90
25342;DHT22;13298;48.792;9.154;2022-09-01T06:48:49;15.20;99.90
25342;DHT22;13298;48.792;9.154;2022-09-01T06:51:17;15.20;99.90
25342;DHT22;13298;48.792;9.154;2022-09-01T06:53:46;15.30;99.90
25342;DHT22;13298;48.792;9.154;2022-09-01T06:56:25;15.40;99.90
25342;DHT22;13298;48.792;9.154;2022-09-01T06:58:56;15.50;99.90
25342;DHT22;13298;48.792;9.154;2022-09-01T07:01:23;15.70;99.90
25342;DHT22;13298;48.792;9.154;2022-09-01T07:03:52;15.80;99.90
25342;DHT22;13298;48.792;9.154;2022-09-01T07:06:20;15.90;99.90
25342;DHT22;13298;48.792;9.154;2022-09-01T07:08:50;16.00;99.90
25342;DHT22;13298;48.792;9.154;2022-09-01T07:11:23;16.00;99.90
25342;DHT22;13298;48.792;9.154;2022-09-01T07:14:00;16.20;99.90
25342;DHT22;13298;48.792;9.154;2022-09-01T07:16:30;16.30;99.90
25342;DHT22;13298;48.792;9.154;2022-09-01T07:19:00;16.30;99.90
25342;DHT22;13298;48.792;9.154;2022-09-01T07:21:28;16.30;99.90
25342;DHT22;13298;48.792;9.154;2022-09-01T07:23:56;16.50;99.90
25342;DHT22;13298;48.792;9.154;2022-09-01T07:26:26;16.60;99.90
25342;DHT22;13298;48.792;9.154;2022-09-01T07:28:53;16.80;99.90
25342;DHT22;13298;48.792;9.154;2022-09-01T07:31:22;17.00;99.90
25342;DHT22;13298;48.792;9.154;2022-09-01T07:33:50;17.10;99.90
25342;DHT22;13298;48.792;9.154;2022-09-01T07:36:19;17.20;99.90
25342;DHT22;13298;48.792;9.154;2022-09-01T07:38:46;17.30;99.90
25342;DHT22;13298;48.792;9.154;2022-09-01T07:41:22;17.40;99.90
25342;DHT22;13298;48.792;9.154;2022-09-01T07:43:49;17.60;99.90
25342;DHT22;13298;48.792;9.154;2022-09-01T07:46:18;17.90;99.90
25342;DHT22;13298;48.792;9.154;2022-09-01T07:48:45;17.90;99.90
25342;DHT22;13298;48.792;9.154;2022-09-01T07:51:12;17.80;99.90
25342;DHT22;13298;48.792;9.154;2022-09-01T07:53:42;17.80;99.90
25342;DHT22;13298;48.792;9.154;2022-09-01T07:56:10;17.80;99.90
25342;DHT22;13298;48.792;9.154;2022-09-01T07:58:38;17.90;99.90
25342;DHT22;13298;48.792;9.154;2022-09-01T08:01:07;18.10;99.90
25342;DHT22;13298;48.792;9.154;2022-09-01T08:03:34;18.30;99.90
25342;DHT22;13298;48.792;9.154;2022-09-01T08:06:08;18.40;99.90
25342;DHT22;13298;48.792;9.154;2022-09-01T08:08:36;18.60;99.90
25342;DHT22;13298;48.792;9.154;2022-09-01T08:11:04;18.80;99.90
25342;DHT22;13298;48.792;9.154;2022-09-01T08:13:34;19.00;99.90
25342;DHT22;13298;48.792;9.154;2022-09-01T08:16:03;19.10;99.90
25342;DHT22;13298;48.792;9.154;2022-09-01T08:18:30;19.20;99.90
25342;DHT22;13298;48.792;9.154;2022-09-01T08:20:55;19.30;99.90
25342;DHT22;13298;48.792;9.154;2022-09-01T08:23:21;19.40;99.90
25342;DHT22;13298;48.792;9.154;2022-09-01T08:25:51;19.50;99.90
25342;DHT22;13298;48.792;9.154;2022-09-01T08:28:18;19.70;99.90
25342;DHT22;13298;48.792;9.154;2022-09-01T08:30:45;19.80;99.90
25342;DHT22;13298;48.792;9.154;2022-09-01T08:33:13;19.80;99.90
25342;DHT22;13298;48.792;9.154;2022-09-01T08:35:40;19.80;99.90
25342;DHT22;13298;48.792;9.154;2022-09-01T08:38:08;19.90;99.90
25342;DHT22;13298;48.792;9.154;2022-09-01T08:40:34;19.90;99.90
25342;DHT22;13298;48.792;9.154;2022-09-01T08:43:10;20.00;99.90
25342;DHT22;13298;48.792;9.154;2022-09-01T08:45:52;20.10;99.90
25342;DHT22;13298;48.792;9.154;2022-09-01T08:48:21;20.20;99.90
25342;DHT22;13298;48.792;9.154;2022-09-01T08:50:55;20.20;99.90
25342;DHT22;13298;48.792;9.154;2022-09-01T08:56:46;20.20;99.90
25342;DHT22;13298;48.792;9.154;2022-09-01T08:59:18;20.10;99.90
25342;DHT22;13298;48.792;9.154;2022-09-01T09:07:55;19.70;99.90
25342;DHT22;13298;48.792;9.154;2022-09-01T09:11:00;19.50;99.90
25342;DHT22;13298;48.792;9.154;2022-09-01T09:13:58;19.20;99.90
25342;DHT22;13298;48.792;9.154;2022-09-01T09:16:45;19.10;99.90
25342;DHT22;13298;48.792;9.154;2022-09-01T09:19:27;18.90;99.90
25342;DHT22;13298;48.792;9.154;2022-09-01T09:21:57;18.80;99.90
25342;DHT22;13298;48.792;9.154;2022-09-01T09:27:32;19.10;99.90
25342;DHT22;13298;48.792;9.154;2022-09-01T09:30:07;19.40;99.90
25342;DHT22;13298;48.792;9.154;2022-09-01T09:38:27;19.70;99.90
25342;DHT22;13298;48.792;9.154;2022-09-01T09:43:32;19.60;99.90
25342;DHT22;13298;48.792;9.154;2022-09-01T09:46:40;19.70;99.90
25342;DHT22;13298;48.792;9.154;2022-09-01T09:49:28;19.90;99.90
25342;DHT22;13298;48.792;9.154;2022-09-01T09:54:29;20.30;99.90
25342;DHT22;13298;48.792;9.154;2022-09-01T09:57:12;20.50;99.90
25342;DHT22;13298;48.792;9.154;2022-09-01T09:59:46;20.60;99.90
25342;DHT22;13298;48.792;9.154;2022-09-01T10:02:36;20.60;99.90
25342;DHT22;13298;48.792;9.154;2022-09-01T10:08:02;21.10;99.90
25342;DHT22;13298;48.792;9.154;2022-09-01T10:10:47;21.50;99.90
25342;DHT22;13298;48.792;9.154;2022-09-01T10:13:18;21.70;99.90
25342;DHT22;13298;48.792;9.154;2022-09-01T10:15:53;21.80;99.90
25342;DHT22;13298;48.792;9.154;2022-09-01T10:18:40;21.80;99.90
25342;DHT22;13298;48.792;9.154;2022-09-01T10:21:15;21.70;99.90
25342;DHT22;13298;48.792;9.154;2022-09-01T10:23:48;21.60;99.90
25342;DHT22;13298;48.792;9.154;2022-09-01T10:26:34;21.60;99.90
25342;DHT22;13298;48.792;9.154;2022-09-01T10:29:07;21.70;99.90
25342;DHT22;13298;48.792;9.154;2022-09-01T10:31:39;21.80;99.90
25342;DHT22;13298;48.792;9.154;2022-09-01T10:34:06;21.90;99.90
25342;DHT22;13298;48.792;9.154;2022-09-01T10:36:40;21.90;99.90
25342;DHT22;13298;48.792;9.154;2022-09-01T10:39:13;21.90;99.90
25342;DHT22;13298;48.792;9.154;2022-09-01T10:41:55;21.90;99.90
25342;DHT22;13298;48.792;9.154;2022-09-01T10:44:34;21.80;99.90
25342;DHT22;13298;48.792;9.154;2022-09-01T10:47:27;21.80;99.90
25342;DHT22;13298;48.792;9.154;2022-09-01T10:50:00;21.80;99.90
25342;DHT22;13298;48.792;9.154;2022-09-01T10:58:20;22.10;99.90
25342;DHT22;13298;48.792;9.154;2022-09-01T11:00:51;21.90;99.90
25342;DHT22;13298;48.792;9.154;2022-09-01T11:08:23;21.70;99.90
25342;DHT22;13298;48.792;9.154;2022-09-01T11:13:55;21.80;99.90
25342;DHT22;13298;48.792;9.154;2022-09-01T11:16:36;21.80;99.90
25342;DHT22;13298;48.792;9.154;2022-09-01T11:25:32;21.40;99.90
25342;DHT22;13298;48.792;9.154;2022-09-01T11:36:36;21.40;99.90
25342;DHT22;13298;48.792;9.154;2022-09-01T11:44:58;21.40;99.90
25342;DHT22;13298;48.792;9.154;2022-09-01T11:47:37;21.40;99.90
25342;DHT22;13298;48.792;9.154;2022-09-01T11:50:29;21.30;99.90
25342;DHT22;13298;48.792;9.154;2022-09-01T11:53:00;21.10;99.90
25342;DHT22;13298;48.792;9.154;2022-09-01T11:55:41;21.10;99.90
25342;DHT22;13298;48.792;9.154;2022-09-01T11:58:34;21.00;99.90
25342;DHT22;13298;48.792;9.154;2022-09-01T12:01:30;21.20;99.90
25342;DHT22;13298;48.792;9.154;2022-09-01T12:04:17;21.30;99.90
25342;DHT22;13298;48.792;9.154;2022-09-01T12:06:54;21.30;99.90
25342;DHT22;13298;48.792;9.154;2022-09-01T12:09:42;21.40;99.90
25342;DHT22;13298;48.792;9.154;2022-09-01T12:15:04;21.30;99.90
25342;DHT22;13298;48.792;9.154;2022-09-01T12:17:34;21.30;99.90
25342;DHT22;13298;48.792;9.154;2022-09-01T12:20:21;21.30;99.90
25342;DHT22;13298;48.792;9.154;2022-09-01T12:22:47;21.10;99.90
25342;DHT22;13298;48.792;9.154;2022-09-01T12:25:28;21.00;99.90
25342;DHT22;13298;48.792;9.154;2022-09-01T12:27:55;21.00;99.90
25342;DHT22;13298;48.792;9.154;2022-09-01T12:30:24;21.00;99.90
25342;DHT22;13298;48.792;9.154;2022-09-01T12:32:50;21.00;99.90
25342;DHT22;13298;48.792;9.154;2022-09-01T12:35:21;21.00;99.90
25342;DHT22;13298;48.792;9.154;2022-09-01T12:37:48;21.00;99.90
25342;DHT22;13298;48.792;9.154;2022-09-01T12:40:32;21.10;99.90
25342;DHT22;13298;48.792;9.154;2022-09-01T12:42:59;21.10;99.90
25342;DHT22;13298;48.792;9.154;2022-09-01T12:45:46;20.90;99.90
25342;DHT22;13298;48.792;9.154;2022-09-01T12:48:34;20.70;99.90
25342;DHT22;13298;48.792;9.154;2022-09-01T12:51:23;20.50;99.90
25342;DHT22;13298;48.792;9.154;2022-09-01T12:53:59;20.30;99.90
25342;DHT22;13298;48.792;9.154;2022-09-01T12:56:32;20.20;99.90
25342;DHT22;13298;48.792;9.154;2022-09-01T13:01:38;20.00;99.90
25342;DHT22;13298;48.792;9.154;2022-09-01T13:04:12;20.20;99.90
25342;DHT22;13298;48.792;9.154;2022-09-01T13:07:06;20.40;99.90
25342;DHT22;13298;48.792;9.154;2022-09-01T13:09:32;20.70;99.90
25342;DHT22;13298;48.792;9.154;2022-09-01T13:12:16;20.90;99.90
25342;DHT22;13298;48.792;9.154;2022-09-01T13:14:44;21.10;99.90
25342;DHT22;13298;48.792;9.154;2022-09-01T13:17:10;21.40;99.90
25342;DHT22;13298;48.792;9.154;2022-09-01T13:19:36;21.80;99.90
25342;DHT22;13298;48.792;9.154;2022-09-01T13:22:03;22.10;99.90
25342;DHT22;13298;48.792;9.154;2022-09-01T13:24:30;22.60;99.90
25342;DHT22;13298;48.792;9.154;2022-09-01T13:26:55;23.00;99.90
25342;DHT22;13298;48.792;9.154;2022-09-01T13:29:22;23.30;99.90
25342;DHT22;13298;48.792;9.154;2022-09-01T13:31:49;23.60;99.90
25342;DHT22;13298;48.792;9.154;2022-09-01T13:34:14;23.70;99.80
25342;DHT22;13298;48.792;9.154;2022-09-01T13:36:40;23.70;99.80
25342;DHT22;13298;48.792;9.154;2022-09-01T13:39:06;23.60;99.20
25342;DHT22;13298;48.792;9.154;2022-09-01T13:41:31;23.40;99.20
25342;DHT22;13298;48.792;9.154;2022-09-01T13:43:57;23.10;99.40
25342;DHT22;13298;48.792;9.154;2022-09-01T13:46:23;22.90;99.90
25342;DHT22;13298;48.792;9.154;2022-09-01T13:48:49;22.80;99.90
25342;DHT22;13298;48.792;9.154;2022-09-01T13:51:25;22.70;99.90
25342;DHT22;13298;48.792;9.154;2022-09-01T13:53:52;22.70;99.90
25342;DHT22;13298;48.792;9.154;2022-09-01T13:56:18;22.70;99.90
25342;DHT22;13298;48.792;9.154;2022-09-01T13:58:44;22.80;99.90
25342;DHT22;13298;48.792;9.154;2022-09-01T14:01:10;22.80;99.90
25342;DHT22;13298;48.792;9.154;2022-09-01T14:03:37;22.90;99.70
25342;DHT22;13298;48.792;9.154;2022-09-01T14:06:04;22.80;98.60
25342;DHT22;13298;48.792;9.154;2022-09-01T14:08:30;22.80;98.70
25342;DHT22;13298;48.792;9.154;2022-09-01T14:10:58;22.70;99.30
25342;DHT22;13298;48.792;9.154;2022-09-01T14:13:24;22.70;99.30
25342;DHT22;13298;48.792;9.154;2022-09-01T14:15:52;22.60;99.50
25342;DHT22;13298;48.792;9.154;2022-09-01T14:18:19;22.50;99.60
25342;DHT22;13298;48.792;9.154;2022-09-01T14:20:56;22.40;99.40
25342;DHT22;13298;48.792;9.154;2022-09-01T14:23:25;22.40;99.70
25342;DHT22;13298;48.792;9.154;2022-09-01T14:25:52;22.40;99.50
25342;DHT22;13298;48.792;9.154;2022-09-01T14:28:19;22.40;98.50
25342;DHT22;13298;48.792;9.154;2022-09-01T14:30:47;22.40;99.50
25342;DHT22;13298;48.792;9.154;2022-09-01T14:33:14;22.50;99.90
25342;DHT22;13298;48.792;9.154;2022-09-01T14:35:43;22.70;99.70
25342;DHT22;13298;48.792;9.154;2022-09-01T14:38:11;22.90;99.90
25342;DHT22;13298;48.792;9.154;2022-09-01T14:40:39;23.00;99.30
25342;DHT22;13298;48.792;9.154;2022-09-01T14:43:07;23.10;98.50
25342;DHT22;13298;48.792;9.154;2022-09-01T14:45:35;23.10;98.10
25342;DHT22;13298;48.792;9.154;2022-09-01T14:48:04;23.10;98.20
25342;DHT22;13298;48.792;9.154;2022-09-01T14:50:31;23.00;98.20
25342;DHT22;13298;48.792;9.154;2022-09-01T14:52:57;23.00;97.60
25342;DHT22;13298;48.792;9.154;2022-09-01T14:55:27;23.00;98.60
25342;DHT22;13298;48.792;9.154;2022-09-01T14:57:55;22.90;99.50
25342;DHT22;13298;48.792;9.154;2022-09-01T15:00:22;22.90;98.10
25342;DHT22;13298;48.792;9.154;2022-09-01T15:02:53;23.00;97.30
25342;DHT22;13298;48.792;9.154;2022-09-01T15:05:19;23.00;97.10
25342;DHT22;13298;48.792;9.154;2022-09-01T15:07:45;22.90;97.10
25342;DHT22;13298;48.792;9.154;2022-09-01T15:10:13;22.90;96.90
25342;DHT22;13298;48.792;9.154;2022-09-01T15:12:41;22.90;96.50
25342;DHT22;13298;48.792;9.154;2022-09-01T15:15:07;22.80;95.60
25342;DHT22;13298;48.792;9.154;2022-09-01T15:17:34;22.80;95.90
25342;DHT22;13298;48.792;9.154;2022-09-01T15:20:00;22.80;96.00
25342;DHT22;13298;48.792;9.154;2022-09-01T15:22:47;22.80;96.60
25342;DHT22;13298;48.792;9.154;2022-09-01T15:25:14;22.80;95.50
25342;DHT22;13298;48.792;9.154;2022-09-01T15:27:41;22.90;96.00
25342;DHT22;13298;48.792;9.154;2022-09-01T15:30:08;22.90;95.90
25342;DHT22;13298;48.792;9.154;2022-09-01T15:32:43;23.00;96.00
25342;DHT22;13298;48.792;9.154;2022-09-01T15:35:09;23.10;95.80
25342;DHT22;13298;48.792;9.154;2022-09-01T15:37:35;23.20;95.90
25342;DHT22;13298;48.792;9.154;2022-09-01T15:40:02;23.30;95.30
25342;DHT22;13298;48.792;9.154;2022-09-01T15:42:29;23.40;95.30
25342;DHT22;13298;48.792;9.154;2022-09-01T15:44:55;23.50;94.90
25342;DHT22;13298;48.792;9.154;2022-09-01T15:47:21;23.60;94.90
25342;DHT22;13298;48.792;9.154;2022-09-01T15:49:47;23.80;94.60
25342;DHT22;13298;48.792;9.154;2022-09-01T15:52:12;24.00;94.70
25342;DHT22;13298;48.792;9.154;2022-09-01T15:54:38;24.20;93.70
25342;DHT22;13298;48.792;9.154;2022-09-01T15:57:05;24.40;93.60
25342;DHT22;13298;48.792;9.154;2022-09-01T15:59:31;24.60;93.40
25342;DHT22;13298;48.792;9.154;2022-09-01T16:01:57;24.90;92.90
25342;DHT22;13298;48.792;9.154;2022-09-01T16:04:23;25.10;92.20
25342;DHT22;13298;48.792;9.154;2022-09-01T16:06:49;25.20;91.60
25342;DHT22;13298;48.792;9.154;2022-09-01T16:09:16;25.10;91.30
25342;DHT22;13298;48.792;9.154;2022-09-01T16:11:45;24.90;91.40
25342;DHT22;13298;48.792;9.154;2022-09-01T16:14:11;24.80;91.70
25342;DHT22;13298;48.792;9.154;2022-09-01T16:17:01;24.70;91.60
25342;DHT22;13298;48.792;9.154;2022-09-01T16:25:03;24.20;91.80
25342;DHT22;13298;48.792;9.154;2022-09-01T16:27:36;24.10;91.60
25342;DHT22;13298;48.792;9.154;2022-09-01T16:30:07;23.90;91.60
25342;DHT22;13298;48.792;9.154;2022-09-01T16:32:36;23.80;91.30
25342;DHT22;13298;48.792;9.154;2022-09-01T16:35:03;23.70;91.80
25342;DHT22;13298;48.792;9.154;2022-09-01T16:43:14;23.50;92.30
25342;DHT22;13298;48.792;9.154;2022-09-01T16:46:06;23.50;92.70
25342;DHT22;13298;48.792;9.154;2022-09-01T16:48:47;23.50;92.30
25342;DHT22;13298;48.792;9.154;2022-09-01T16:57:25;24.00;92.50
25342;DHT22;13298;48.792;9.154;2022-09-01T16:59:58;24.90;91.50
25342;DHT22;13298;48.792;9.154;2022-09-01T17:02:43;25.80;90.00
25342;DHT22;13298;48.792;9.154;2022-09-01T17:05:36;26.60;86.60
25342;DHT22;13298;48.792;9.154;2022-09-01T17:08:16;27.10;83.40
25342;DHT22;13298;48.792;9.154;2022-09-01T17:13:41;25.90;83.70
25342;DHT22;13298;48.792;9.154;2022-09-01T17:16:26;24.80;85.70
25342;DHT22;13298;48.792;9.154;2022-09-01T17:18:57;24.00;89.10
25342;DHT22;13298;48.792;9.154;2022-09-01T17:21:34;23.10;90.80
25342;DHT22;13298;48.792;9.154;2022-09-01T17:27:13;21.90;93.40
25342;DHT22;13298;48.792;9.154;2022-09-01T17:29:47;21.40;94.50
25342;DHT22;13298;48.792;9.154;2022-09-01T17:39:27;20.40;96.60
25342;DHT22;13298;48.792;9.154;2022-09-01T17:41:48;20.20;97.60